»·PEaware :: SKW5243 KSFO-KGEG

SKW5243 :: KSFO-KGEG

FLIGHT INFORMATION

Flight Status: Arrived
Operator:
SkyWest Airlines
More flights by this operator :: More flights under this callsign
Pilot: Anonymous 16342 (16342)
Aircraft: CANADAIR CL-600 CRJ-700
(CRJ7)
More flights by this aircraft type
Origin: KSFO San Francisco Intl
United States
Destination: KGEG Spokane Intl
United States
More flights between these airports :: More routes between these airports
Route: TRUKN2 DEDHD KNZIE BREWW KS12I GEG
File this flight plan on PilotEdge
Remarks:
Altitude:
(Current/Filed)
33,000ft
Speed:
(Current/Filed)
391kts
Departed: 05-Sep-19 06:19 PM
Arrived: 05-Sep-19 07:53 PM
Distance/Time
Traveled:
637nm/1:34
Distance/Time
To Go:
Arrived

Flight Plot

Page will automatically refresh every two minutes.

Flight plan parsing failed; only flown route is shown


Map Options




Map Legend


Flown Route
Filed Route
Departure Airport
Arrival Airport
Navaid (VOR, NDB)
Fix

Horizontal Profiles

Position Reports

Time Latitude Longitude Heading Altitude Ground
Speed
05-Sep-19 17:51 37.621410 -122.390463 164 20ft 0kts
05-Sep-19 17:52 37.621410 -122.390463 164 20ft 0kts
05-Sep-19 17:53 37.621410 -122.390463 164 20ft 0kts
05-Sep-19 17:54 37.621410 -122.390463 164 20ft 0kts
05-Sep-19 17:55 37.621410 -122.390463 164 20ft 0kts
05-Sep-19 17:56 37.621410 -122.390463 164 20ft 0kts
05-Sep-19 17:58 37.621410 -122.390463 164 20ft 0kts
05-Sep-19 17:59 37.621410 -122.390463 164 20ft 0kts
05-Sep-19 18:00 37.621410 -122.390463 164 20ft 0kts
05-Sep-19 18:01 37.621410 -122.390463 164 20ft 0kts
05-Sep-19 18:02 37.621410 -122.390463 164 20ft 0kts
05-Sep-19 18:03 37.621410 -122.390463 164 20ft 0kts
05-Sep-19 18:04 37.621410 -122.390463 164 20ft 0kts
05-Sep-19 18:05 37.621410 -122.390463 164 20ft 0kts
05-Sep-19 18:06 37.621410 -122.390463 164 20ft 0kts
05-Sep-19 18:07 37.621630 -122.390542 164 20ft 2kts
05-Sep-19 18:08 37.622167 -122.390876 118 20ft 2kts
05-Sep-19 18:09 37.622167 -122.391378 71 20ft 0kts
05-Sep-19 18:10 37.622167 -122.391375 71 20ft 0kts
05-Sep-19 18:11 37.622383 -122.390555 70 20ft 12kts
05-Sep-19 18:12 37.621470 -122.386343 116 20ft 7kts
05-Sep-19 18:13 37.619866 -122.382595 114 20ft 17kts
05-Sep-19 18:14 37.616912 -122.379547 190 20ft 12kts
05-Sep-19 18:15 37.614048 -122.381361 209 20ft 7kts
05-Sep-19 18:16 37.611298 -122.383044 176 20ft 6kts
05-Sep-19 18:16 37.610766 -122.382313 120 20ft 0kts
05-Sep-19 18:18 37.610822 -122.381120 41 20ft 12kts
05-Sep-19 18:19 37.635064 -122.363907 29 674ft 183kts
05-Sep-19 18:19 37.670092 -122.330456 34 3823ft 199kts
05-Sep-19 18:20 37.714764 -122.264269 78 6314ft 307kts
05-Sep-19 18:22 37.788275 -122.201897 3 11677ft 321kts
05-Sep-19 18:22 37.863210 -122.191212 6 14751ft 334kts
05-Sep-19 18:23 37.958247 -122.175323 5 16703ft 351kts
05-Sep-19 18:25 38.077169 -122.155757 5 18921ft 368kts
05-Sep-19 18:25 38.161970 -122.141686 6 20519ft 372kts
05-Sep-19 18:26 38.266234 -122.124439 6 22138ft 382kts
05-Sep-19 18:27 38.373278 -122.110628 0 23606ft 391kts
05-Sep-19 18:28 38.483472 -122.106698 0 24944ft 402kts
05-Sep-19 18:29 38.597626 -122.101545 0 26219ft 413kts
05-Sep-19 18:30 38.713620 -122.096297 0 27348ft 424kts
05-Sep-19 18:31 38.833203 -122.091139 0 28379ft 435kts
05-Sep-19 18:32 38.957071 -122.085660 0 29346ft 448kts
05-Sep-19 18:33 39.082750 -122.080239 0 30526ft 452kts
05-Sep-19 18:34 39.208598 -122.074576 0 31637ft 453kts
05-Sep-19 18:35 39.333955 -122.069184 0 32642ft 452kts
05-Sep-19 18:36 39.461500 -122.063181 0 32970ft 471kts
05-Sep-19 18:37 39.596880 -122.057324 0 32971ft 500kts
05-Sep-19 18:38 39.740537 -122.050866 0 32967ft 532kts
05-Sep-19 18:39 39.889835 -122.043970 1 32963ft 524kts
05-Sep-19 18:40 40.030464 -122.037548 0 32959ft 482kts
05-Sep-19 18:41 40.158958 -122.031672 0 32957ft 451kts
05-Sep-19 18:42 40.284143 -122.025872 0 32957ft 452kts
05-Sep-19 18:43 40.410128 -122.020193 0 32953ft 453kts
05-Sep-19 18:44 40.536473 -122.014300 0 32957ft 453kts
05-Sep-19 18:45 40.662559 -122.008410 1 32967ft 454kts
05-Sep-19 18:46 40.789333 -122.002411 1 32990ft 455kts
05-Sep-19 18:47 40.915717 -121.996710 1 33025ft 455kts
05-Sep-19 18:48 41.042564 -121.990630 1 33065ft 455kts
05-Sep-19 18:49 41.170439 -121.984777 1 33100ft 470kts
05-Sep-19 18:50 41.304701 -121.978477 1 33114ft 494kts
05-Sep-19 18:51 41.445668 -121.971659 1 33111ft 521kts
05-Sep-19 18:52 41.592919 -121.955059 19 33105ft 539kts
05-Sep-19 18:53 41.731052 -121.882779 20 33103ft 530kts
05-Sep-19 18:54 41.871279 -121.824744 21 33100ft 525kts
05-Sep-19 18:55 42.009505 -121.761046 20 33120ft 522kts
05-Sep-19 18:56 42.146729 -121.699998 21 33132ft 519kts
05-Sep-19 18:57 42.283879 -121.637594 20 33133ft 518kts
05-Sep-19 18:58 42.419776 -121.575767 20 33137ft 516kts
05-Sep-19 18:59 42.555796 -121.513792 21 33153ft 515kts
05-Sep-19 19:00 42.691427 -121.451820 21 33154ft 515kts
05-Sep-19 19:01 42.827614 -121.389122 20 33157ft 515kts
05-Sep-19 19:02 42.963279 -121.326408 20 33163ft 514kts
05-Sep-19 19:03 43.098280 -121.263422 20 33170ft 514kts
05-Sep-19 19:04 43.233736 -121.200374 20 33178ft 514kts
05-Sep-19 19:05 43.368947 -121.136985 20 33211ft 512kts
05-Sep-19 19:06 43.503828 -121.073151 22 33230ft 512kts
05-Sep-19 19:07 43.638765 -121.009108 21 33235ft 513kts
05-Sep-19 19:08 43.773304 -120.944978 21 33238ft 513kts
05-Sep-19 19:09 43.908316 -120.880280 21 33240ft 514kts
05-Sep-19 19:10 44.041341 -120.809243 33 33240ft 508kts
05-Sep-19 19:11 44.155771 -120.697027 38 33248ft 505kts
05-Sep-19 19:12 44.275637 -120.594232 37 33242ft 506kts
05-Sep-19 19:13 44.393668 -120.486262 37 33224ft 508kts
05-Sep-19 19:14 44.512740 -120.379396 37 33196ft 509kts
05-Sep-19 19:15 44.631997 -120.270846 37 33177ft 510kts
05-Sep-19 19:16 44.750588 -120.162299 37 33160ft 510kts
05-Sep-19 19:17 44.869596 -120.053097 37 33145ft 511kts
05-Sep-19 19:18 44.988259 -119.943642 36 33131ft 511kts
05-Sep-19 19:19 45.107499 -119.833626 36 33118ft 510kts
05-Sep-19 19:20 45.226067 -119.722830 36 31912ft 506kts
05-Sep-19 19:21 45.341381 -119.615350 35 29910ft 487kts
05-Sep-19 19:22 45.453286 -119.510007 35 27903ft 473kts
05-Sep-19 19:23 45.561038 -119.408299 34 25914ft 460kts
05-Sep-19 19:24 45.666348 -119.308209 34 24194ft 443kts
05-Sep-19 19:25 45.765024 -119.214069 34 23226ft 415kts
05-Sep-19 19:26 45.859335 -119.123724 34 22022ft 400kts
05-Sep-19 19:27 45.950747 -119.035776 34 20817ft 391kts
05-Sep-19 19:28 46.040291 -118.949238 34 19617ft 385kts
05-Sep-19 19:29 46.128244 -118.863980 34 18422ft 380kts
05-Sep-19 19:30 46.215716 -118.778877 34 17218ft 377kts
05-Sep-19 19:31 46.303325 -118.693290 34 15659ft 385kts
05-Sep-19 19:32 46.390550 -118.607678 35 14122ft 362kts
05-Sep-19 19:33 46.474634 -118.524729 34 13939ft 375kts
05-Sep-19 19:34 46.562740 -118.437723 34 13939ft 390kts
05-Sep-19 19:35 46.654137 -118.346822 35 13942ft 402kts
05-Sep-19 19:36 46.747297 -118.253924 35 13947ft 411kts
05-Sep-19 19:37 46.842135 -118.159016 35 13973ft 416kts
05-Sep-19 19:38 46.931300 -118.069302 34 13973ft 364kts
05-Sep-19 19:39 47.010928 -117.990134 29 13979ft 329kts
05-Sep-19 19:40 47.095593 -117.938197 23 13987ft 330kts
05-Sep-19 19:41 47.175163 -117.870991 34 13235ft 331kts
05-Sep-19 19:42 47.250627 -117.795708 34 12031ft 327kts
05-Sep-19 19:43 47.325862 -117.720477 34 10827ft 324kts
05-Sep-19 19:44 47.399636 -117.646857 34 9628ft 307kts
05-Sep-19 19:45 47.465282 -117.581732 34 8410ft 263kts
05-Sep-19 19:46 47.523356 -117.524252 34 7027ft 241kts
05-Sep-19 19:47 47.576875 -117.471385 34 6019ft 212kts
05-Sep-19 19:48 47.619219 -117.429820 34 5939ft 152kts
05-Sep-19 19:49 47.653382 -117.396871 23 2503ft 174kts
05-Sep-19 19:50 47.655643 -117.461230 260 3160ft 168kts
05-Sep-19 19:51 47.632656 -117.516215 227 2469ft 136kts
05-Sep-19 19:52 47.620669 -117.534270 230 2379ft 16kts
05-Sep-19 19:53 47.619993 -117.538262 293 2379ft 12kts
05-Sep-19 19:54 47.622157 -117.535905 44 2379ft 8kts
05-Sep-19 19:55 47.623841 -117.536069 3 2379ft 2kts
05-Sep-19 19:56 47.623941 -117.536059 3 2379ft 0kts
05-Sep-19 19:57 47.623941 -117.536059 3 2379ft 0kts

Navigation Log

Ident Type
Flight plan parsing failed, navigation log unavailable